createdAt,value
2019-05-26T00:00:34.713Z,15.13
2019-05-26T00:01:38.375Z,15.14
2019-05-26T00:02:42.510Z,15.11
2019-05-26T00:03:46.189Z,15.07
2019-05-26T00:04:50.418Z,15.01
2019-05-26T00:05:54.058Z,14.91
2019-05-26T00:06:58.203Z,14.86
2019-05-26T00:08:01.768Z,14.85
2019-05-26T00:09:07.443Z,14.79
2019-05-26T00:10:11.412Z,14.75
2019-05-26T00:11:16.074Z,14.73
2019-05-26T00:12:20.603Z,14.72
2019-05-26T00:13:24.844Z,14.68
2019-05-26T00:14:28.527Z,14.67
2019-05-26T00:15:32.741Z,14.70
2019-05-26T00:16:36.377Z,14.72
2019-05-26T00:17:40.586Z,14.70
2019-05-26T00:18:44.206Z,14.67
2019-05-26T00:19:48.849Z,14.64
2019-05-26T00:20:52.510Z,14.60
2019-05-26T00:21:56.745Z,14.56
2019-05-26T00:23:00.312Z,14.52
2019-05-26T00:24:04.551Z,14.54
2019-05-26T00:25:08.946Z,14.56
2019-05-26T00:26:13.150Z,14.56
2019-05-26T00:27:16.785Z,14.56
2019-05-26T00:28:21.011Z,14.54
2019-05-26T00:29:24.674Z,14.51
2019-05-26T00:30:29.029Z,14.47
2019-05-26T00:31:33.085Z,14.47
2019-05-26T00:32:37.508Z,14.47
2019-05-26T00:33:41.061Z,14.49
2019-05-26T00:34:45.292Z,14.47
2019-05-26T00:35:49.362Z,14.46
2019-05-26T00:36:53.573Z,14.43
2019-05-26T00:37:57.216Z,14.42
2019-05-26T00:39:01.468Z,14.44
2019-05-26T00:40:10.046Z,14.44
2019-05-26T00:41:14.269Z,14.45
2019-05-26T00:42:18.303Z,14.48
2019-05-26T00:43:22.534Z,14.40
2019-05-26T00:44:26.213Z,14.40
2019-05-26T00:45:30.534Z,14.40
2019-05-26T00:46:34.156Z,14.43
2019-05-26T00:47:38.689Z,14.43
2019-05-26T00:48:42.370Z,14.45
2019-05-26T00:49:46.585Z,14.46
2019-05-26T00:50:50.373Z,14.47
2019-05-26T00:51:54.586Z,14.47
2019-05-26T00:52:58.255Z,14.49
2019-05-26T00:54:02.484Z,14.49
2019-05-26T00:55:07.962Z,14.50
2019-05-26T00:56:12.207Z,14.50
2019-05-26T00:57:16.233Z,14.47
2019-05-26T00:58:20.465Z,14.49
2019-05-26T00:59:24.437Z,14.51
2019-05-26T01:00:39.921Z,14.51
2019-05-26T01:01:43.591Z,14.53
2019-05-26T01:02:47.817Z,14.54
2019-05-26T01:03:51.741Z,14.54
2019-05-26T01:04:56.028Z,14.53
2019-05-26T01:05:59.683Z,14.52
2019-05-26T01:07:03.926Z,14.52
2019-05-26T01:08:08.419Z,14.52
2019-05-26T01:09:12.630Z,14.50
2019-05-26T01:10:16.542Z,14.48
2019-05-26T01:11:20.767Z,14.49
2019-05-26T01:12:24.436Z,14.40
2019-05-26T01:13:28.646Z,14.38
2019-05-26T01:14:32.287Z,14.37
2019-05-26T01:15:36.829Z,14.38
2019-05-26T01:16:40.474Z,14.37
2019-05-26T01:17:44.747Z,14.38
2019-05-26T01:18:48.397Z,14.37
2019-05-26T01:19:52.695Z,14.36
2019-05-26T01:20:56.356Z,14.35
2019-05-26T01:22:00.587Z,14.34
2019-05-26T01:23:04.332Z,14.22
2019-05-26T01:24:08.548Z,14.19
2019-05-26T01:25:12.517Z,14.20
2019-05-26T01:26:16.749Z,14.20
2019-05-26T01:27:20.423Z,14.19
2019-05-26T01:28:24.765Z,14.20
2019-05-26T01:29:28.729Z,14.18
2019-05-26T01:30:37.194Z,14.11
2019-05-26T01:31:40.824Z,14.08
2019-05-26T01:32:45.044Z,14.14
2019-05-26T01:33:48.738Z,14.14
2019-05-26T01:34:52.952Z,14.08
2019-05-26T01:35:56.720Z,14.08
2019-05-26T01:37:01.148Z,13.99
2019-05-26T01:38:20.623Z,14.03
2019-05-26T01:39:11.213Z,14.01
2019-05-26T01:40:15.947Z,14.01
2019-05-26T01:41:20.205Z,14.00
2019-05-26T01:42:23.853Z,14.00
2019-05-26T01:43:28.062Z,13.94
2019-05-26T01:44:31.699Z,13.96
2019-05-26T01:45:35.934Z,13.91
2019-05-26T01:46:39.534Z,13.96
2019-05-26T01:47:43.836Z,13.93
2019-05-26T01:48:47.405Z,13.92
2019-05-26T01:49:51.589Z,13.92
2019-05-26T01:50:55.262Z,13.90
2019-05-26T01:51:59.418Z,13.88
2019-05-26T01:53:03.071Z,13.86
2019-05-26T01:54:07.623Z,13.86
2019-05-26T01:55:11.595Z,13.87
2019-05-26T01:56:15.862Z,13.85
2019-05-26T01:57:19.510Z,13.85
2019-05-26T01:58:24.127Z,13.80
2019-05-26T01:59:27.756Z,13.83
2019-05-26T02:00:32.131Z,13.83
2019-05-26T02:01:35.864Z,13.73
2019-05-26T02:02:40.102Z,13.73
2019-05-26T02:03:43.743Z,13.72
2019-05-26T02:04:47.964Z,13.71
2019-05-26T02:05:51.613Z,13.71
2019-05-26T02:06:55.857Z,13.71
2019-05-26T02:07:59.494Z,13.71
2019-05-26T02:09:04.862Z,13.71
2019-05-26T02:10:09.191Z,13.70
2019-05-26T02:11:13.422Z,13.70
2019-05-26T02:12:17.088Z,13.69
2019-05-26T02:13:21.308Z,13.72
2019-05-26T02:14:25.368Z,13.70
2019-05-26T02:15:29.858Z,13.65
2019-05-26T02:16:33.503Z,13.62
2019-05-26T02:17:37.761Z,13.67
2019-05-26T02:18:41.360Z,13.67
2019-05-26T02:19:45.583Z,13.66
2019-05-26T02:20:49.262Z,13.59
2019-05-26T02:21:53.476Z,13.61
2019-05-26T02:22:57.120Z,13.60
2019-05-26T02:24:01.344Z,13.51
2019-05-26T02:25:07.082Z,13.55
2019-05-26T02:26:11.332Z,13.55
2019-05-26T02:27:14.967Z,13.51
2019-05-26T02:28:19.218Z,13.53
2019-05-26T02:29:22.876Z,13.56
2019-05-26T02:30:27.090Z,13.57
2019-05-26T02:31:30.764Z,13.59
2019-05-26T02:32:35.003Z,13.61
2019-05-26T02:33:38.992Z,13.61
2019-05-26T02:34:43.231Z,13.60
2019-05-26T02:35:46.876Z,13.62
2019-05-26T02:36:51.143Z,13.61
2019-05-26T02:37:54.764Z,13.61
2019-05-26T02:39:02.556Z,13.60
2019-05-26T02:40:09.562Z,13.55
2019-05-26T02:41:13.800Z,13.63
2019-05-26T02:42:17.469Z,13.59
2019-05-26T02:43:22.060Z,13.59
2019-05-26T02:44:25.698Z,13.59
2019-05-26T02:45:29.954Z,13.59
2019-05-26T02:46:33.576Z,13.56
2019-05-26T02:47:37.841Z,13.56
2019-05-26T02:48:41.470Z,13.57
2019-05-26T02:49:45.704Z,13.57
2019-05-26T02:50:49.343Z,13.48
2019-05-26T02:51:53.578Z,13.47
2019-05-26T02:52:57.159Z,13.47
2019-05-26T02:54:01.409Z,13.45
2019-05-26T02:55:07.324Z,13.33
2019-05-26T02:56:12.356Z,13.38
2019-05-26T02:57:16.315Z,13.29
2019-05-26T02:58:20.545Z,13.23
2019-05-26T02:59:24.225Z,13.24
2019-05-26T03:00:37.640Z,13.24
2019-05-26T03:02:00.839Z,13.16
2019-05-26T03:02:47.430Z,13.21
2019-05-26T03:03:51.747Z,13.20
2019-05-26T03:04:56.024Z,13.18
2019-05-26T03:06:00.411Z,13.17
2019-05-26T03:07:05.047Z,13.17
2019-05-26T03:08:09.096Z,13.17
2019-05-26T03:09:22.902Z,13.16
2019-05-26T03:10:19.504Z,13.16
2019-05-26T03:11:26.676Z,13.16
2019-05-26T03:12:31.062Z,13.11
2019-05-26T03:13:38.333Z,13.11
2019-05-26T03:14:44.161Z,13.12
2019-05-26T03:15:48.443Z,13.16
2019-05-26T03:16:54.073Z,13.09
2019-05-26T03:18:00.499Z,13.07
2019-05-26T03:19:05.460Z,13.08
2019-05-26T03:20:10.686Z,13.08
2019-05-26T03:21:16.806Z,13.08
2019-05-26T03:22:22.730Z,13.06
2019-05-26T03:23:29.419Z,13.03
2019-05-26T03:24:34.143Z,13.04
2019-05-26T03:25:38.313Z,13.07
2019-05-26T03:26:42.587Z,13.06
2019-05-26T03:27:46.208Z,13.03
2019-05-26T03:28:50.455Z,13.06
2019-05-26T03:29:54.107Z,13.05
2019-05-26T03:30:58.332Z,13.01
2019-05-26T03:32:02.480Z,13.01
2019-05-26T03:33:07.325Z,13.02
2019-05-26T03:34:10.932Z,13.02
2019-05-26T03:35:15.565Z,13.04
2019-05-26T03:36:19.196Z,13.05
2019-05-26T03:37:23.464Z,13.05
2019-05-26T03:38:27.125Z,12.99
2019-05-26T03:39:43.237Z,12.96
2019-05-26T03:40:36.728Z,12.96
2019-05-26T03:41:40.966Z,12.98
2019-05-26T03:42:44.620Z,12.98
2019-05-26T03:43:48.871Z,13.00
2019-05-26T03:44:52.787Z,13.01
2019-05-26T03:46:05.891Z,12.99
2019-05-26T03:47:09.920Z,12.97
2019-05-26T03:48:14.198Z,12.97
2019-05-26T03:49:17.827Z,12.97
2019-05-26T03:50:22.050Z,12.97
2019-05-26T03:51:26.123Z,13.00
2019-05-26T03:52:30.334Z,13.04
2019-05-26T03:53:34.020Z,13.07
2019-05-26T03:54:38.620Z,13.07
2019-05-26T03:55:42.300Z,13.05
2019-05-26T03:56:46.497Z,13.06
2019-05-26T03:57:50.082Z,13.04
2019-05-26T03:58:54.351Z,13.05
2019-05-26T03:59:57.985Z,13.06
2019-05-26T04:01:02.211Z,13.06
2019-05-26T04:02:05.840Z,13.10
2019-05-26T04:03:10.418Z,13.12
2019-05-26T04:04:14.111Z,13.14
2019-05-26T04:05:18.317Z,13.15
2019-05-26T04:06:21.980Z,13.18
2019-05-26T04:07:26.180Z,13.17
2019-05-26T04:08:30.227Z,13.17
2019-05-26T04:09:34.476Z,13.18
2019-05-26T04:10:38.118Z,13.16
2019-05-26T04:11:42.336Z,13.17
2019-05-26T04:12:45.955Z,13.20
2019-05-26T04:13:50.195Z,13.20
2019-05-26T04:14:54.336Z,13.22
2019-05-26T04:15:58.636Z,13.28
2019-05-26T04:17:02.285Z,13.30
2019-05-26T04:18:06.488Z,13.37
2019-05-26T04:19:10.121Z,13.35
2019-05-26T04:20:14.487Z,13.34
2019-05-26T04:21:18.120Z,13.12
2019-05-26T04:22:22.355Z,13.12
2019-05-26T04:23:26.200Z,13.13
2019-05-26T04:24:30.391Z,13.03
2019-05-26T04:25:34.203Z,13.10
2019-05-26T04:26:38.422Z,13.19
2019-05-26T04:27:42.328Z,13.28
2019-05-26T04:28:46.588Z,13.39
2019-05-26T04:29:50.325Z,13.38
2019-05-26T04:30:54.619Z,13.40
2019-05-26T04:32:01.891Z,13.21
2019-05-26T04:33:04.501Z,13.18
2019-05-26T04:34:08.164Z,13.19
2019-05-26T04:35:12.369Z,13.28
2019-05-26T04:36:15.963Z,13.30
2019-05-26T04:37:20.242Z,13.33
2019-05-26T04:38:24.172Z,13.39
2019-05-26T04:39:28.314Z,13.49
2019-05-26T04:40:31.945Z,13.48
2019-05-26T04:41:36.527Z,13.41
2019-05-26T04:42:40.263Z,13.29
2019-05-26T04:43:44.569Z,13.26
2019-05-26T04:44:48.582Z,13.21
2019-05-26T04:45:53.201Z,13.10
2019-05-26T04:46:56.876Z,13.18
2019-05-26T04:48:01.294Z,13.29
2019-05-26T04:49:05.149Z,13.14
2019-05-26T04:50:09.708Z,13.02
2019-05-26T04:51:13.728Z,13.03
2019-05-26T04:52:17.937Z,13.16
2019-05-26T04:53:22.701Z,13.29
2019-05-26T04:54:27.402Z,13.42
2019-05-26T04:55:31.004Z,13.51
2019-05-26T04:56:35.335Z,13.46
2019-05-26T04:57:39.030Z,13.39
2019-05-26T04:58:43.275Z,13.24
2019-05-26T04:59:46.936Z,13.15
2019-05-26T05:00:51.148Z,13.30
2019-05-26T05:01:54.827Z,13.37
2019-05-26T05:02:59.412Z,13.56
2019-05-26T05:04:03.107Z,13.65
2019-05-26T05:05:11.052Z,13.60
2019-05-26T05:06:14.693Z,13.43
2019-05-26T05:07:19.216Z,13.31
2019-05-26T05:08:22.878Z,13.03
2019-05-26T05:09:27.085Z,13.03
2019-05-26T05:10:41.810Z,13.08
2019-05-26T05:11:37.137Z,13.08
2019-05-26T05:12:40.793Z,13.09
2019-05-26T05:13:45.025Z,12.97
2019-05-26T05:14:49.095Z,12.97
2019-05-26T05:15:53.324Z,12.97
2019-05-26T05:16:57.253Z,13.02
2019-05-26T05:18:01.795Z,13.08
2019-05-26T05:19:05.427Z,13.08
2019-05-26T05:20:09.755Z,12.97
2019-05-26T05:21:13.432Z,13.08
2019-05-26T05:22:17.675Z,13.22
2019-05-26T05:23:21.336Z,13.35
2019-05-26T05:24:25.913Z,13.39
2019-05-26T05:25:29.586Z,13.41
2019-05-26T05:26:33.865Z,13.45
2019-05-26T05:27:37.600Z,13.45
2019-05-26T05:28:41.825Z,13.59
2019-05-26T05:29:45.461Z,13.58
2019-05-26T05:30:49.698Z,13.67
2019-05-26T05:31:53.391Z,13.71
2019-05-26T05:32:57.639Z,13.71
2019-05-26T05:34:04.218Z,13.73
2019-05-26T05:35:09.833Z,13.79
2019-05-26T05:36:13.493Z,13.82
2019-05-26T05:37:17.691Z,13.82
2019-05-26T05:38:21.329Z,14.02
2019-05-26T05:39:25.498Z,14.02
2019-05-26T05:40:29.584Z,14.03
2019-05-26T05:41:34.111Z,14.07
2019-05-26T05:42:37.896Z,14.22
2019-05-26T05:43:42.141Z,14.26
2019-05-26T05:44:45.787Z,14.31
2019-05-26T05:45:50.020Z,14.29
2019-05-26T05:46:54.862Z,14.29
2019-05-26T05:47:59.122Z,14.17
2019-05-26T05:49:02.775Z,14.13
2019-05-26T05:50:11.661Z,14.26
2019-05-26T05:51:15.310Z,14.40
2019-05-26T05:52:19.810Z,14.51
2019-05-26T05:53:23.437Z,14.64
2019-05-26T05:54:27.971Z,14.69
2019-05-26T05:55:31.605Z,14.75
2019-05-26T05:56:35.882Z,14.79
2019-05-26T05:57:39.589Z,14.84
2019-05-26T05:58:43.842Z,14.90
2019-05-26T05:59:47.551Z,14.93
2019-05-26T06:00:51.963Z,14.95
2019-05-26T06:01:55.604Z,15.02
2019-05-26T06:02:59.911Z,15.10
2019-05-26T06:04:03.585Z,15.16
2019-05-26T06:05:08.540Z,15.20
2019-05-26T06:06:12.192Z,15.30
2019-05-26T06:07:23.731Z,15.32
2019-05-26T06:08:27.379Z,15.32
2019-05-26T06:09:34.757Z,15.35
2019-05-26T06:10:38.434Z,15.42
2019-05-26T06:11:42.741Z,15.51
2019-05-26T06:12:46.384Z,15.60
2019-05-26T06:13:51.047Z,15.67
2019-05-26T06:14:54.670Z,15.73
2019-05-26T06:15:58.957Z,15.80
2019-05-26T06:17:02.590Z,15.90
2019-05-26T06:18:06.822Z,16.00
2019-05-26T06:19:10.486Z,16.04
2019-05-26T06:20:15.228Z,16.14
2019-05-26T06:21:18.844Z,16.16
2019-05-26T06:22:23.067Z,16.25
2019-05-26T06:23:26.711Z,16.40
2019-05-26T06:24:30.925Z,16.50
2019-05-26T06:25:34.655Z,16.58
2019-05-26T06:26:38.897Z,16.71
2019-05-26T06:27:42.683Z,16.79
2019-05-26T06:28:46.878Z,16.94
2019-05-26T06:29:58.749Z,17.09
2019-05-26T06:30:56.510Z,17.18
2019-05-26T06:32:00.605Z,17.22
2019-05-26T06:33:05.126Z,17.28
2019-05-26T06:34:08.764Z,17.28
2019-05-26T06:35:13.340Z,17.35
2019-05-26T06:36:16.975Z,17.51
2019-05-26T06:37:21.505Z,17.58
2019-05-26T06:38:25.164Z,17.61
2019-05-26T06:39:29.743Z,17.69
2019-05-26T06:40:33.395Z,17.82
2019-05-26T06:41:37.283Z,17.89
2019-05-26T06:42:41.164Z,17.95
2019-05-26T06:43:45.385Z,18.02
2019-05-26T06:44:53.610Z,18.15
2019-05-26T06:45:54.957Z,18.27
2019-05-26T06:46:58.588Z,18.33
2019-05-26T06:48:02.833Z,18.42
2019-05-26T06:49:06.490Z,18.54
2019-05-26T06:50:11.016Z,18.59
2019-05-26T06:51:14.663Z,18.63
2019-05-26T06:52:18.890Z,18.72
2019-05-26T06:53:22.609Z,18.80
2019-05-26T06:54:26.857Z,18.89
2019-05-26T06:55:30.699Z,18.96
2019-05-26T06:56:35.135Z,19.09
2019-05-26T06:57:38.781Z,19.20
2019-05-26T06:58:43.063Z,19.24
2019-05-26T06:59:46.617Z,19.38
2019-05-26T07:00:50.919Z,19.53
2019-05-26T07:01:54.995Z,19.65
2019-05-26T07:02:59.306Z,19.72
2019-05-26T07:04:02.960Z,19.83
2019-05-26T07:05:08.683Z,19.71
2019-05-26T07:06:12.275Z,19.46
2019-05-26T07:07:16.501Z,19.27
2019-05-26T07:08:20.171Z,19.39
2019-05-26T07:09:24.385Z,19.37
2019-05-26T07:10:28.195Z,19.23
2019-05-26T07:11:49.035Z,19.47
2019-05-26T07:12:37.748Z,19.67
2019-05-26T07:13:42.379Z,19.93
2019-05-26T07:14:46.036Z,20.09
2019-05-26T07:15:50.240Z,20.03
2019-05-26T07:16:53.871Z,19.92
2019-05-26T07:17:58.035Z,19.98
2019-05-26T07:19:01.707Z,20.04
2019-05-26T07:20:10.193Z,20.19
2019-05-26T07:21:13.887Z,20.42
2019-05-26T07:22:18.497Z,20.75
2019-05-26T07:23:22.161Z,20.98
2019-05-26T07:24:29.373Z,20.87
2019-05-26T07:25:31.803Z,20.83
2019-05-26T07:26:36.034Z,20.82
2019-05-26T07:27:39.679Z,20.84
2019-05-26T07:28:43.835Z,20.78
2019-05-26T07:29:47.503Z,20.71
2019-05-26T07:30:51.766Z,20.65
2019-05-26T07:31:55.342Z,20.75
2019-05-26T07:32:59.558Z,21.06
2019-05-26T07:34:03.196Z,21.35
2019-05-26T07:35:09.225Z,21.60
2019-05-26T07:36:12.717Z,21.83
2019-05-26T07:37:16.966Z,22.08
2019-05-26T07:38:20.630Z,22.35
2019-05-26T07:39:25.194Z,22.65
2019-05-26T07:40:28.881Z,22.85
2019-05-26T07:41:33.170Z,23.10
2019-05-26T07:42:37.087Z,23.30
2019-05-26T07:43:41.232Z,23.51
2019-05-26T07:44:44.884Z,23.72
2019-05-26T07:45:49.143Z,23.91
2019-05-26T07:46:52.792Z,24.02
2019-05-26T07:47:57.017Z,24.10
2019-05-26T07:49:00.657Z,24.24
2019-05-26T07:50:07.713Z,24.35
2019-05-26T07:51:11.446Z,24.36
2019-05-26T07:52:15.667Z,24.46
2019-05-26T07:53:19.314Z,24.59
2019-05-26T07:54:25.792Z,24.65
2019-05-26T07:55:28.828Z,24.77
2019-05-26T07:56:33.100Z,24.95
2019-05-26T07:57:36.749Z,25.23
2019-05-26T07:58:40.983Z,25.40
2019-05-26T07:59:44.621Z,25.50
2019-05-26T08:00:48.838Z,25.62
2019-05-26T08:01:52.521Z,25.72
2019-05-26T08:02:56.763Z,25.93
2019-05-26T08:04:00.383Z,26.07
2019-05-26T08:05:06.619Z,26.20
2019-05-26T08:06:10.325Z,26.31
2019-05-26T08:07:14.880Z,26.36
2019-05-26T08:08:18.830Z,26.42
2019-05-26T08:09:23.059Z,26.60
2019-05-26T08:10:26.707Z,26.65
2019-05-26T08:11:30.917Z,26.74
2019-05-26T08:12:34.981Z,26.70
2019-05-26T08:13:39.234Z,26.73
2019-05-26T08:14:43.271Z,26.80
2019-05-26T08:15:47.496Z,26.78
2019-05-26T08:16:51.226Z,26.69
2019-05-26T08:17:55.646Z,26.36
2019-05-26T08:18:59.231Z,26.27
2019-05-26T08:20:03.781Z,26.24
2019-05-26T08:21:07.539Z,26.25
2019-05-26T08:22:11.784Z,26.36
2019-05-26T08:23:15.689Z,26.50
2019-05-26T08:24:20.055Z,26.63
2019-05-26T08:25:23.701Z,26.54
2019-05-26T08:26:28.054Z,26.54
2019-05-26T08:27:31.682Z,26.70
2019-05-26T08:28:35.909Z,26.98
2019-05-26T08:29:40.004Z,27.08
2019-05-26T08:30:44.314Z,27.09
2019-05-26T08:31:48.268Z,27.16
2019-05-26T08:32:52.510Z,27.15
2019-05-26T08:33:56.255Z,27.15
2019-05-26T08:35:00.563Z,27.24
2019-05-26T08:36:04.192Z,27.37
2019-05-26T08:37:08.418Z,27.58
2019-05-26T08:38:14.613Z,27.77
2019-05-26T08:39:18.852Z,27.99
2019-05-26T08:40:22.586Z,28.12
2019-05-26T08:41:27.227Z,28.08
2019-05-26T08:42:43.773Z,27.72
2019-05-26T08:43:36.972Z,27.63
2019-05-26T08:44:40.617Z,27.56
2019-05-26T08:45:44.889Z,27.53
2019-05-26T08:46:48.557Z,27.50
2019-05-26T08:47:53.197Z,27.43
2019-05-26T08:48:56.908Z,27.55
2019-05-26T08:50:01.117Z,27.64
2019-05-26T08:51:04.788Z,27.72
2019-05-26T08:52:09.017Z,27.86
2019-05-26T08:53:12.658Z,27.81
2019-05-26T08:54:16.874Z,27.72
2019-05-26T08:55:21.227Z,27.80
2019-05-26T08:56:25.807Z,27.87
2019-05-26T08:57:29.455Z,27.95
2019-05-26T08:58:36.118Z,28.01
2019-05-26T08:59:39.753Z,28.05
2019-05-26T09:00:44.351Z,27.94
2019-05-26T09:01:48.045Z,27.98
2019-05-26T09:02:52.339Z,27.61
2019-05-26T09:03:55.948Z,27.52
2019-05-26T09:05:00.357Z,27.52
2019-05-26T09:06:04.195Z,27.52
2019-05-26T09:07:08.454Z,27.61
2019-05-26T09:08:12.103Z,27.78
2019-05-26T09:09:16.316Z,27.99
2019-05-26T09:10:20.050Z,28.17
2019-05-26T09:11:24.892Z,28.33
2019-05-26T09:12:28.580Z,28.38
2019-05-26T09:13:33.282Z,28.50
2019-05-26T09:14:36.974Z,28.26
2019-05-26T09:15:43.428Z,28.23
2019-05-26T09:16:47.108Z,28.15
2019-05-26T09:17:51.656Z,28.21
2019-05-26T09:18:55.300Z,28.40
2019-05-26T09:19:59.612Z,28.44
2019-05-26T09:21:03.251Z,28.38
2019-05-26T09:22:07.544Z,28.30
2019-05-26T09:23:11.558Z,28.29
2019-05-26T09:24:16.335Z,28.31
2019-05-26T09:25:20.791Z,28.31
2019-05-26T09:26:25.049Z,28.40
2019-05-26T09:27:28.678Z,28.62
2019-05-26T09:28:33.008Z,28.70
2019-05-26T09:29:36.660Z,28.76
2019-05-26T09:30:40.894Z,28.85
2019-05-26T09:31:44.574Z,28.91
2019-05-26T09:32:48.865Z,28.97
2019-05-26T09:33:52.547Z,28.99
2019-05-26T09:34:56.766Z,28.99
2019-05-26T09:36:00.414Z,28.98
2019-05-26T09:37:04.681Z,28.90
2019-05-26T09:38:08.758Z,28.79
2019-05-26T09:39:13.060Z,28.85
2019-05-26T09:40:17.198Z,28.94
2019-05-26T09:41:21.415Z,28.91
2019-05-26T09:42:25.066Z,28.87
2019-05-26T09:43:33.447Z,28.88
2019-05-26T09:44:37.092Z,28.88
2019-05-26T09:45:41.321Z,28.90
2019-05-26T09:46:45.302Z,28.93
2019-05-26T09:47:49.560Z,29.06
2019-05-26T09:48:53.697Z,29.09
2019-05-26T09:49:57.949Z,29.08
2019-05-26T09:51:01.663Z,29.00
2019-05-26T09:52:05.978Z,29.01
2019-05-26T09:53:10.145Z,29.04
2019-05-26T09:54:14.392Z,29.10
2019-05-26T09:55:18.537Z,29.12
2019-05-26T09:56:23.172Z,29.23
2019-05-26T09:57:26.807Z,29.34
2019-05-26T09:58:31.199Z,29.46
2019-05-26T09:59:34.868Z,29.62
2019-05-26T10:00:39.133Z,29.57
2019-05-26T10:01:42.788Z,29.62
2019-05-26T10:02:47.054Z,29.75
2019-05-26T10:03:51.238Z,29.88
2019-05-26T10:04:55.852Z,30.03
2019-05-26T10:06:01.486Z,30.12
2019-05-26T10:07:11.165Z,30.20
2019-05-26T10:08:15.049Z,30.26
2019-05-26T10:09:19.341Z,30.24
2019-05-26T10:10:23.043Z,30.37
2019-05-26T10:11:27.692Z,30.27
2019-05-26T10:12:31.762Z,30.18
2019-05-26T10:13:36.210Z,30.26
2019-05-26T10:14:39.950Z,30.19
2019-05-26T10:15:44.218Z,30.26
2019-05-26T10:16:47.911Z,30.29
2019-05-26T10:17:52.264Z,30.08
2019-05-26T10:18:55.941Z,29.76
2019-05-26T10:20:03.495Z,29.73
2019-05-26T10:21:07.194Z,29.94
2019-05-26T10:22:12.870Z,30.25
2019-05-26T10:23:17.304Z,30.52
2019-05-26T10:24:21.630Z,30.71
2019-05-26T10:25:25.371Z,30.81
2019-05-26T10:26:31.809Z,30.86
2019-05-26T10:27:36.033Z,31.01
2019-05-26T10:28:40.550Z,31.09
2019-05-26T10:29:45.950Z,31.18
2019-05-26T10:30:50.323Z,30.94
2019-05-26T10:31:56.977Z,31.00
2019-05-26T10:33:01.487Z,31.25
2019-05-26T10:34:08.071Z,31.39
2019-05-26T10:35:12.542Z,31.47
2019-05-26T10:36:16.200Z,31.54
2019-05-26T10:37:20.545Z,31.60
2019-05-26T10:38:24.683Z,31.62
2019-05-26T10:39:30.914Z,31.68
2019-05-26T10:40:34.605Z,31.86
2019-05-26T10:41:39.220Z,32.02
2019-05-26T10:42:43.284Z,31.80
2019-05-26T10:43:53.626Z,31.93
2019-05-26T10:44:57.371Z,32.18
2019-05-26T10:46:01.680Z,32.34
2019-05-26T10:47:06.969Z,32.47
2019-05-26T10:48:11.211Z,32.63
2019-05-26T10:49:15.210Z,32.58
2019-05-26T10:50:22.239Z,32.64
2019-05-26T10:51:27.338Z,32.50
2019-05-26T10:52:31.508Z,32.59
2019-05-26T10:53:35.108Z,32.65
2019-05-26T10:54:39.457Z,32.18
2019-05-26T10:55:43.188Z,32.28
2019-05-26T10:56:49.974Z,32.47
2019-05-26T10:57:53.651Z,32.51
2019-05-26T10:58:57.899Z,32.53
2019-05-26T11:00:01.563Z,32.58
2019-05-26T11:01:05.883Z,32.71
2019-05-26T11:02:09.536Z,32.79
2019-05-26T11:03:13.859Z,32.84
2019-05-26T11:04:17.565Z,32.75
2019-05-26T11:05:21.817Z,32.77
2019-05-26T11:06:25.828Z,32.77
2019-05-26T11:07:30.115Z,32.72
2019-05-26T11:08:34.082Z,32.56
2019-05-26T11:09:38.401Z,32.46
2019-05-26T11:10:42.485Z,32.34
2019-05-26T11:11:46.650Z,32.26
2019-05-26T11:12:52.816Z,32.18
2019-05-26T11:14:02.681Z,32.10
2019-05-26T11:15:02.466Z,32.14
2019-05-26T11:16:06.773Z,32.23
2019-05-26T11:17:10.377Z,32.09
2019-05-26T11:18:14.667Z,31.94
2019-05-26T11:19:18.258Z,31.70
2019-05-26T11:20:24.712Z,31.56
2019-05-26T11:21:28.486Z,31.59
2019-05-26T11:22:33.128Z,31.66
2019-05-26T11:23:36.875Z,31.65
2019-05-26T11:24:41.087Z,31.64
2019-05-26T11:25:44.717Z,31.66
2019-05-26T11:26:49.558Z,31.69
2019-05-26T11:27:53.936Z,31.74
2019-05-26T11:28:58.164Z,31.75
2019-05-26T11:30:02.212Z,31.69
2019-05-26T11:31:06.421Z,31.68
2019-05-26T11:32:10.156Z,31.65
2019-05-26T11:33:14.448Z,31.54
2019-05-26T11:34:18.150Z,31.41
2019-05-26T11:35:22.958Z,31.32
2019-05-26T11:36:26.606Z,31.27
2019-05-26T11:37:30.837Z,31.37
2019-05-26T11:38:34.799Z,31.38
2019-05-26T11:39:39.024Z,31.33
2019-05-26T11:40:47.279Z,31.27
2019-05-26T11:42:12.383Z,31.23
2019-05-26T11:43:15.674Z,31.25
2019-05-26T11:44:17.544Z,31.29
2019-05-26T11:45:15.459Z,31.24
2019-05-26T11:46:19.780Z,31.26
2019-05-26T11:47:23.516Z,31.26
2019-05-26T11:48:32.396Z,31.26
2019-05-26T11:49:36.412Z,31.18
2019-05-26T11:50:41.028Z,31.12
2019-05-26T11:51:44.714Z,31.05
2019-05-26T11:52:49.414Z,31.01
2019-05-26T11:53:53.107Z,31.00
2019-05-26T11:54:57.381Z,30.98
2019-05-26T11:56:03.841Z,30.93
2019-05-26T11:57:08.307Z,30.79
2019-05-26T11:58:12.077Z,30.77
2019-05-26T11:59:16.730Z,30.90
2019-05-26T12:00:20.966Z,30.91
2019-05-26T12:01:25.307Z,30.87
2019-05-26T12:02:29.033Z,30.83
2019-05-26T12:03:33.405Z,30.72
2019-05-26T12:04:37.030Z,30.71
2019-05-26T12:05:41.274Z,30.65
2019-05-26T12:06:44.897Z,30.65
2019-05-26T12:07:48.925Z,30.66
2019-05-26T12:08:52.542Z,30.58
2019-05-26T12:09:57.710Z,30.58
2019-05-26T12:11:01.381Z,30.58
2019-05-26T12:12:05.803Z,30.64
2019-05-26T12:13:09.470Z,30.70
2019-05-26T12:14:14.136Z,30.70
2019-05-26T12:15:18.139Z,30.77
2019-05-26T12:16:23.769Z,30.76
2019-05-26T12:17:27.343Z,30.71
2019-05-26T12:18:31.583Z,30.71
2019-05-26T12:19:35.593Z,30.55
2019-05-26T12:20:39.881Z,30.51
2019-05-26T12:21:43.579Z,30.56
2019-05-26T12:22:48.485Z,30.47
2019-05-26T12:23:54.909Z,30.42
2019-05-26T12:24:58.298Z,30.36
2019-05-26T12:26:02.354Z,30.37
2019-05-26T12:27:06.722Z,30.34
2019-05-26T12:28:10.384Z,30.42
2019-05-26T12:29:14.596Z,30.36
2019-05-26T12:30:18.899Z,30.32
2019-05-26T12:31:23.096Z,30.29
2019-05-26T12:32:26.705Z,30.25
2019-05-26T12:33:30.927Z,30.19
2019-05-26T12:34:34.872Z,29.99
2019-05-26T12:35:43.709Z,30.02
2019-05-26T12:36:47.342Z,30.04
2019-05-26T12:37:51.579Z,30.04
2019-05-26T12:38:55.220Z,30.06
2019-05-26T12:39:59.502Z,30.12
2019-05-26T12:41:03.302Z,30.16
2019-05-26T12:42:07.706Z,30.18
2019-05-26T12:43:11.630Z,30.15
2019-05-26T12:44:15.824Z,30.21
2019-05-26T12:45:20.041Z,30.27
2019-05-26T12:46:24.336Z,30.32
2019-05-26T12:47:27.988Z,30.31
2019-05-26T12:48:32.225Z,30.31
2019-05-26T12:49:47.024Z,30.34
2019-05-26T12:50:51.458Z,30.36
2019-05-26T12:51:55.150Z,30.38
2019-05-26T12:52:59.981Z,30.34
2019-05-26T12:54:03.680Z,30.20
2019-05-26T12:55:09.920Z,30.18
2019-05-26T12:56:13.758Z,30.11
2019-05-26T12:57:18.067Z,30.15
2019-05-26T12:58:21.814Z,30.21
2019-05-26T12:59:26.061Z,30.24
2019-05-26T13:00:45.366Z,30.31
2019-05-26T13:01:35.946Z,30.39
2019-05-26T13:02:39.606Z,30.36
2019-05-26T13:03:43.826Z,30.34
2019-05-26T13:04:47.543Z,30.33
2019-05-26T13:05:51.838Z,30.40
2019-05-26T13:06:55.654Z,30.39
2019-05-26T13:08:01.619Z,30.48
2019-05-26T13:09:08.528Z,30.57
2019-05-26T13:10:13.839Z,30.56
2019-05-26T13:11:17.467Z,30.53
2019-05-26T13:12:21.902Z,30.46
2019-05-26T13:13:25.852Z,30.42
2019-05-26T13:14:30.098Z,30.32
2019-05-26T13:15:33.732Z,30.29
2019-05-26T13:16:38.109Z,30.26
2019-05-26T13:17:42.189Z,30.20
2019-05-26T13:18:46.419Z,30.26
2019-05-26T13:19:50.870Z,30.36
2019-05-26T13:20:55.136Z,30.51
2019-05-26T13:21:59.166Z,30.53
2019-05-26T13:23:03.413Z,30.48
2019-05-26T13:24:09.240Z,30.47
2019-05-26T13:25:14.455Z,30.44
2019-05-26T13:26:18.091Z,30.35
2019-05-26T13:27:22.523Z,30.16
2019-05-26T13:28:26.300Z,30.02
2019-05-26T13:29:30.529Z,29.94
2019-05-26T13:30:34.641Z,29.76
2019-05-26T13:31:38.921Z,29.64
2019-05-26T13:32:42.582Z,29.68
2019-05-26T13:33:49.373Z,29.45
2019-05-26T13:34:53.170Z,29.36
2019-05-26T13:35:57.428Z,29.40
2019-05-26T13:37:01.161Z,29.47
2019-05-26T13:38:05.407Z,29.55
2019-05-26T13:39:09.587Z,29.58
2019-05-26T13:40:14.741Z,29.57
2019-05-26T13:41:18.408Z,29.55
2019-05-26T13:42:22.641Z,29.54
2019-05-26T13:43:26.632Z,29.36
2019-05-26T13:44:31.248Z,29.31
2019-05-26T13:45:34.882Z,29.30
2019-05-26T13:46:39.125Z,29.33
2019-05-26T13:47:42.773Z,29.36
2019-05-26T13:48:47.147Z,29.35